Time;durP1;ratioP1;P1;durP2;ratioP2;P2;SDS_P1;SDS_P2;PMS_P1;PMS_P2;Temp;Humidity;BMP_temperature;BMP_pressure;BME280_temperature;BME280_humidity;BME280_pressure;Samples;Min_cycle;Max_cycle;Signal;HPM_P1;HPM_P2
2022/11/23 00:01:20;;;;;;;46.38;15.30;;;;;;;;;;5033384;28;20049;-47
2022/11/23 00:03:47;;;;;;;45.40;16.55;;;;;;;;;;5032465;28;20477;-45
2022/11/23 00:06:14;;;;;;;54.17;16.25;;;;;;;;;;5044702;28;20053;-47
2022/11/23 00:08:40;;;;;;;41.33;15.20;;;;;;;;;;5032310;28;20470;-46
2022/11/23 00:11:08;;;;;;;40.42;14.40;;;;;;;;;;5031478;28;20057;-49
2022/11/23 00:13:38;;;;;;;42.15;14.38;;;;;;;;;;5038177;28;20050;-49
2022/11/23 00:16:05;;;;;;;47.90;15.73;;;;;;;;;;5031890;28;20084;-49
2022/11/23 00:18:33;;;;;;;47.22;15.15;;;;;;;;;;5032165;28;20061;-51
2022/11/23 00:21:05;;;;;;;40.50;15.48;;;;;;;;;;5035720;28;20064;-49
2022/11/23 00:23:32;;;;;;;44.05;14.88;;;;;;;;;;5032078;28;20064;-49
2022/11/23 00:26:01;;;;;;;41.45;16.30;;;;;;;;;;5032396;28;20061;-49
2022/11/23 00:28:29;;;;;;;45.45;16.25;;;;;;;;;;5032198;28;20053;-51
2022/11/23 00:30:57;;;;;;;50.00;18.60;;;;;;;;;;5044315;28;20458;-49
2022/11/23 00:33:25;;;;;;;43.80;15.82;;;;;;;;;;5041495;28;20053;-50
2022/11/23 00:35:58;;;;;;;44.60;15.35;;;;;;;;;;5047340;28;20049;-48
2022/11/23 00:38:26;;;;;;;50.50;16.20;;;;;;;;;;5032204;28;20049;-49
2022/11/23 00:40:57;;;;;;;47.03;16.73;;;;;;;;;;5032310;28;20046;-48
2022/11/23 00:43:25;;;;;;;44.72;15.30;;;;;;;;;;5031998;28;20057;-49
2022/11/23 00:46:03;;;;;;;44.85;15.30;;;;;;;;;;5045069;28;20053;-49
2022/11/23 00:48:30;;;;;;;51.45;17.23;;;;;;;;;;5040338;28;20049;-48
2022/11/23 00:50:59;;;;;;;47.40;16.85;;;;;;;;;;5042483;28;20057;-48
2022/11/23 00:53:26;;;;;;;47.95;15.52;;;;;;;;;;5031778;28;20105;-49
2022/11/23 00:55:54;;;;;;;54.83;18.45;;;;;;;;;;5036499;28;20049;-50
2022/11/23 00:58:21;;;;;;;49.22;16.73;;;;;;;;;;5032116;28;20046;-49
2022/11/23 01:00:48;;;;;;;49.28;16.25;;;;;;;;;;5044871;28;20049;-51
2022/11/23 01:03:17;;;;;;;47.47;16.98;;;;;;;;;;5032024;28;20103;-50
2022/11/23 01:05:45;;;;;;;50.38;16.92;;;;;;;;;;5044542;28;20052;-48
2022/11/23 01:08:12;;;;;;;38.70;15.07;;;;;;;;;;5037411;28;20061;-50
2022/11/23 01:10:39;;;;;;;51.38;15.77;;;;;;;;;;5034683;28;20056;-52
2022/11/23 01:13:05;;;;;;;52.03;17.60;;;;;;;;;;5030598;28;20485;-49
2022/11/23 01:15:33;;;;;;;47.85;16.50;;;;;;;;;;5030686;28;20115;-50
2022/11/23 01:17:59;;;;;;;45.92;16.65;;;;;;;;;;5031274;28;20508;-48
2022/11/23 01:20:28;;;;;;;45.03;16.27;;;;;;;;;;5034899;28;20041;-52
2022/11/23 01:22:56;;;;;;;45.40;16.08;;;;;;;;;;5043661;28;20057;-48
2022/11/23 01:25:23;;;;;;;46.40;15.65;;;;;;;;;;5037204;28;20061;-48
2022/11/23 01:27:51;;;;;;;48.45;16.02;;;;;;;;;;5035237;28;20571;-49
2022/11/23 01:30:18;;;;;;;45.38;15.27;;;;;;;;;;5044844;28;20055;-52
2022/11/23 01:32:46;;;;;;;52.45;15.40;;;;;;;;;;5037404;28;20470;-49
2022/11/23 01:35:13;;;;;;;46.80;14.52;;;;;;;;;;5044674;28;20048;-48
2022/11/23 01:37:42;;;;;;;42.20;15.13;;;;;;;;;;5036472;28;20403;-49
2022/11/23 01:40:11;;;;;;;42.88;15.35;;;;;;;;;;5034858;28;20054;-47
2022/11/23 01:42:40;;;;;;;44.05;15.48;;;;;;;;;;5034437;28;20146;-49
2022/11/23 01:45:26;;;;;;;41.10;15.65;;;;;;;;;;5034781;28;20061;-50
2022/11/23 01:47:54;;;;;;;48.17;15.75;;;;;;;;;;5044087;28;20131;-49
2022/11/23 01:50:24;;;;;;;49.38;16.35;;;;;;;;;;5048592;28;20045;-51
2022/11/23 01:52:58;;;;;;;42.15;16.17;;;;;;;;;;5035039;28;20607;-50
2022/11/23 01:55:26;;;;;;;53.22;18.17;;;;;;;;;;5054284;28;20339;-50
2022/11/23 01:57:54;;;;;;;55.33;19.38;;;;;;;;;;5037751;28;20045;-49
2022/11/23 02:00:21;;;;;;;45.72;16.80;;;;;;;;;;5034745;28;20060;-48
2022/11/23 02:02:53;;;;;;;49.03;16.25;;;;;;;;;;5034370;28;20057;-49
2022/11/23 02:05:22;;;;;;;47.25;16.00;;;;;;;;;;5046881;28;20087;-48
2022/11/23 02:07:51;;;;;;;47.70;17.00;;;;;;;;;;5035277;28;20053;-49
2022/11/23 02:10:20;;;;;;;48.40;17.50;;;;;;;;;;5034202;28;20058;-49
2022/11/23 02:12:48;;;;;;;50.08;16.35;;;;;;;;;;5034504;28;20437;-51
2022/11/23 02:15:15;;;;;;;54.47;19.13;;;;;;;;;;5035130;28;20049;-49
2022/11/23 02:17:43;;;;;;;54.17;17.95;;;;;;;;;;5045958;28;20064;-49
2022/11/23 02:20:12;;;;;;;49.53;17.42;;;;;;;;;;5037611;28;20067;-50
2022/11/23 02:22:43;;;;;;;46.20;17.80;;;;;;;;;;5034439;28;20069;-51
2022/11/23 02:25:15;;;;;;;45.72;15.45;;;;;;;;;;5034272;28;20041;-48
2022/11/23 02:27:48;;;;;;;45.47;18.50;;;;;;;;;;5033877;28;20536;-50
2022/11/23 02:30:17;;;;;;;48.45;16.73;;;;;;;;;;5043383;28;20056;-49
2022/11/23 02:32:43;;;;;;;46.78;16.95;;;;;;;;;;5040488;28;20078;-48
2022/11/23 02:35:12;;;;;;;44.53;16.63;;;;;;;;;;5051644;28;20056;-51
2022/11/23 02:37:39;;;;;;;41.85;14.88;;;;;;;;;;5035668;28;20061;-49
2022/11/23 02:40:13;;;;;;;49.42;17.00;;;;;;;;;;5045369;28;20044;-49
2022/11/23 02:42:41;;;;;;;51.08;19.00;;;;;;;;;;5034493;28;20057;-49
2022/11/23 02:45:16;;;;;;;46.55;16.25;;;;;;;;;;5034700;28;20053;-49
2022/11/23 02:47:44;;;;;;;46.17;15.40;;;;;;;;;;5037443;28;20068;-49
2022/11/23 02:50:11;;;;;;;45.42;16.08;;;;;;;;;;5048187;28;20310;-49
2022/11/23 02:52:39;;;;;;;45.58;15.57;;;;;;;;;;5034769;28;20065;-49
2022/11/23 02:55:06;;;;;;;41.03;15.10;;;;;;;;;;5045049;28;20049;-50
2022/11/23 02:57:36;;;;;;;44.22;16.23;;;;;;;;;;5039689;28;20080;-47
2022/11/23 03:00:04;;;;;;;54.03;17.08;;;;;;;;;;5045946;28;20470;-49
2022/11/23 03:02:33;;;;;;;39.13;16.23;;;;;;;;;;5039688;28;20061;-48
2022/11/23 03:05:03;;;;;;;47.00;16.35;;;;;;;;;;5052539;28;20044;-48
2022/11/23 03:07:30;;;;;;;50.33;15.80;;;;;;;;;;5048947;28;20527;-51
2022/11/23 03:09:58;;;;;;;42.00;15.55;;;;;;;;;;5052606;28;20075;-48
2022/11/23 03:12:24;;;;;;;44.15;15.15;;;;;;;;;;5053075;28;20049;-51
2022/11/23 03:14:51;;;;;;;42.72;16.13;;;;;;;;;;5052624;28;20466;-51
2022/11/23 03:17:19;;;;;;;45.80;16.38;;;;;;;;;;5040611;28;20068;-52
2022/11/23 03:19:48;;;;;;;50.25;16.77;;;;;;;;;;5038575;28;20473;-50
2022/11/23 03:22:16;;;;;;;47.50;15.38;;;;;;;;;;5052860;28;20046;-52
2022/11/23 03:24:44;;;;;;;41.85;15.90;;;;;;;;;;5046098;28;20061;-48
2022/11/23 03:27:11;;;;;;;40.60;15.23;;;;;;;;;;5042793;28;20124;-51
2022/11/23 03:29:39;;;;;;;38.60;14.98;;;;;;;;;;5051742;28;20048;-47
2022/11/23 03:32:06;;;;;;;44.80;15.85;;;;;;;;;;5041185;28;20061;-51
2022/11/23 03:34:34;;;;;;;43.80;15.48;;;;;;;;;;5049425;28;20071;-48
2022/11/23 03:37:06;;;;;;;37.85;14.38;;;;;;;;;;5051345;28;20049;-49
2022/11/23 03:39:33;;;;;;;43.35;15.52;;;;;;;;;;5044684;28;20462;-49
2022/11/23 03:42:01;;;;;;;44.17;14.50;;;;;;;;;;5050237;28;20049;-48
2022/11/23 03:44:27;;;;;;;47.22;15.43;;;;;;;;;;5052442;28;20053;-48
2022/11/23 03:46:54;;;;;;;36.60;14.32;;;;;;;;;;5036576;28;20056;-49
2022/11/23 03:49:22;;;;;;;41.17;13.88;;;;;;;;;;5045055;28;20045;-52
2022/11/23 03:51:50;;;;;;;43.15;15.48;;;;;;;;;;5040835;28;20057;-52
2022/11/23 03:54:19;;;;;;;42.25;14.85;;;;;;;;;;5040414;28;20049;-49
2022/11/23 03:56:46;;;;;;;38.15;14.73;;;;;;;;;;5039511;28;20662;-49
2022/11/23 03:59:14;;;;;;;41.95;15.13;;;;;;;;;;5037015;28;20061;-48
2022/11/23 04:01:41;;;;;;;43.03;14.75;;;;;;;;;;5048343;28;20072;-51
2022/11/23 04:04:09;;;;;;;44.80;14.73;;;;;;;;;;5040163;28;20060;-48
2022/11/23 04:06:36;;;;;;;40.75;14.40;;;;;;;;;;5049445;28;20053;-48
2022/11/23 04:09:06;;;;;;;50.47;15.50;;;;;;;;;;5045421;28;20056;-48
2022/11/23 04:11:35;;;;;;;43.30;15.38;;;;;;;;;;5052099;28;20389;-49
2022/11/23 04:14:03;;;;;;;41.22;15.25;;;;;;;;;;5049768;28;20045;-49
2022/11/23 04:16:30;;;;;;;42.30;14.40;;;;;;;;;;5036082;28;20408;-51
2022/11/23 04:18:58;;;;;;;44.40;15.20;;;;;;;;;;5041823;28;20057;-49
2022/11/23 04:21:25;;;;;;;46.33;15.25;;;;;;;;;;5032675;28;20073;-48
2022/11/23 04:23:53;;;;;;;45.40;14.63;;;;;;;;;;5031962;28;20045;-49
2022/11/23 04:26:21;;;;;;;45.83;15.52;;;;;;;;;;5045330;28;20057;-49
2022/11/23 04:29:02;;;;;;;38.70;13.77;;;;;;;;;;5032319;28;20057;-49
2022/11/23 04:31:29;;;;;;;39.63;14.32;;;;;;;;;;5040874;28;20051;-51
2022/11/23 04:33:57;;;;;;;39.47;14.65;;;;;;;;;;5050902;28;20052;-49
2022/11/23 04:36:24;;;;;;;40.63;14.63;;;;;;;;;;5044794;28;20053;-48
2022/11/23 04:38:51;;;;;;;44.85;16.10;;;;;;;;;;5042801;28;20064;-47
2022/11/23 04:41:19;;;;;;;40.10;14.95;;;;;;;;;;5048027;28;20049;-48
2022/11/23 04:43:47;;;;;;;48.00;15.55;;;;;;;;;;5042198;28;20045;-51
2022/11/23 04:46:16;;;;;;;48.35;15.40;;;;;;;;;;5031885;28;20064;-50
2022/11/23 04:48:43;;;;;;;41.58;15.55;;;;;;;;;;5043402;28;20382;-48
2022/11/23 04:51:11;;;;;;;44.67;15.55;;;;;;;;;;5045032;28;20037;-49
2022/11/23 04:53:39;;;;;;;43.90;14.80;;;;;;;;;;5043766;28;20062;-51
2022/11/23 04:56:07;;;;;;;44.72;15.30;;;;;;;;;;5051657;28;20449;-48
2022/11/23 04:58:36;;;;;;;42.65;15.07;;;;;;;;;;5042908;28;20454;-48
2022/11/23 05:01:04;;;;;;;44.25;16.20;;;;;;;;;;5048853;28;20093;-49
2022/11/23 05:03:37;;;;;;;41.17;15.52;;;;;;;;;;5039135;28;20051;-49
2022/11/23 05:06:06;;;;;;;54.28;16.55;;;;;;;;;;5047914;28;20048;-49
2022/11/23 05:08:33;;;;;;;43.83;16.63;;;;;;;;;;5049395;28;20650;-49
2022/11/23 05:11:01;;;;;;;44.80;14.48;;;;;;;;;;5036433;28;20041;-48
2022/11/23 05:13:28;;;;;;;45.08;15.98;;;;;;;;;;5035798;28;20049;-50
2022/11/23 05:15:56;;;;;;;48.03;15.73;;;;;;;;;;5035569;28;20057;-48
2022/11/23 05:18:24;;;;;;;42.60;14.48;;;;;;;;;;5040819;28;20057;-48
2022/11/23 05:20:58;;;;;;;43.80;14.98;;;;;;;;;;5035857;28;20056;-51
2022/11/23 05:23:25;;;;;;;47.78;13.60;;;;;;;;;;5034825;28;20088;-48
2022/11/23 05:25:53;;;;;;;41.80;15.68;;;;;;;;;;5035985;28;20053;-48
2022/11/23 05:28:23;;;;;;;40.33;13.93;;;;;;;;;;5035590;28;20064;-50
2022/11/23 05:30:51;;;;;;;46.28;16.17;;;;;;;;;;5035628;28;20514;-48
2022/11/23 05:33:19;;;;;;;51.33;16.00;;;;;;;;;;5038976;28;20359;-48
2022/11/23 05:35:46;;;;;;;51.63;17.50;;;;;;;;;;5038853;28;20056;-48
2022/11/23 05:38:15;;;;;;;47.47;16.05;;;;;;;;;;5036949;28;20049;-48
2022/11/23 05:40:44;;;;;;;52.50;17.90;;;;;;;;;;5035111;28;20067;-48
2022/11/23 05:43:10;;;;;;;53.58;15.25;;;;;;;;;;5039516;28;20056;-48
2022/11/23 05:45:37;;;;;;;51.88;17.83;;;;;;;;;;5054456;28;20370;-49
2022/11/23 05:48:05;;;;;;;51.45;18.38;;;;;;;;;;5047165;28;20525;-51
2022/11/23 05:50:32;;;;;;;48.72;16.42;;;;;;;;;;5049734;28;20057;-48
2022/11/23 05:52:59;;;;;;;53.13;20.50;;;;;;;;;;5047717;28;20050;-49
2022/11/23 05:55:28;;;;;;;57.97;18.73;;;;;;;;;;5047870;28;20060;-49
2022/11/23 05:57:56;;;;;;;53.53;17.50;;;;;;;;;;5045985;28;20397;-51
2022/11/23 06:00:23;;;;;;;60.83;18.95;;;;;;;;;;5049261;28;20046;-48
2022/11/23 06:02:51;;;;;;;54.47;17.70;;;;;;;;;;5037742;28;20053;-48
2022/11/23 06:05:19;;;;;;;51.88;17.85;;;;;;;;;;5034299;28;20093;-49
2022/11/23 06:07:51;;;;;;;54.90;18.58;;;;;;;;;;5040839;28;20052;-49
2022/11/23 06:10:19;;;;;;;63.78;18.55;;;;;;;;;;5039738;28;20057;-46
2022/11/23 06:12:48;;;;;;;55.28;19.17;;;;;;;;;;5034500;28;20049;-48
2022/11/23 06:15:16;;;;;;;55.42;17.35;;;;;;;;;;5034357;28;20092;-50
2022/11/23 06:17:44;;;;;;;63.70;19.20;;;;;;;;;;5047127;28;20049;-51
2022/11/23 06:20:11;;;;;;;60.25;19.38;;;;;;;;;;5053612;28;20053;-50
2022/11/23 06:22:39;;;;;;;56.33;20.05;;;;;;;;;;5045182;28;20057;-51
2022/11/23 06:25:06;;;;;;;63.70;20.15;;;;;;;;;;5045610;28;20054;-47
2022/11/23 06:27:34;;;;;;;62.15;20.35;;;;;;;;;;5033950;28;20065;-48
2022/11/23 06:30:08;;;;;;;63.03;19.40;;;;;;;;;;5037006;28;20478;-48
2022/11/23 06:32:36;;;;;;;64.32;19.92;;;;;;;;;;5042135;28;20493;-52
2022/11/23 06:35:04;;;;;;;61.42;20.08;;;;;;;;;;5050635;28;20071;-49
2022/11/23 06:37:31;;;;;;;64.50;21.52;;;;;;;;;;5052522;28;20064;-52
2022/11/23 06:39:58;;;;;;;53.80;20.00;;;;;;;;;;5033674;28;20386;-51
2022/11/23 06:42:26;;;;;;;59.80;19.60;;;;;;;;;;5042559;28;20145;-48
2022/11/23 06:44:56;;;;;;;52.17;18.08;;;;;;;;;;5034305;28;20045;-49
2022/11/23 06:47:29;;;;;;;60.88;18.10;;;;;;;;;;5041742;28;20132;-51
2022/11/23 06:49:57;;;;;;;57.55;20.33;;;;;;;;;;5038231;28;20056;-50
2022/11/23 06:52:24;;;;;;;58.72;19.33;;;;;;;;;;5039239;28;20053;-50
2022/11/23 06:54:52;;;;;;;52.78;19.23;;;;;;;;;;5042111;28;20478;-49
2022/11/23 06:57:20;;;;;;;59.30;19.05;;;;;;;;;;5033121;28;20050;-48
2022/11/23 06:59:48;;;;;;;62.10;18.92;;;;;;;;;;5037301;28;20045;-52
2022/11/23 07:02:16;;;;;;;52.30;19.70;;;;;;;;;;5035639;28;20056;-51
2022/11/23 07:04:45;;;;;;;59.58;20.23;;;;;;;;;;5032897;28;20477;-49
2022/11/23 07:07:12;;;;;;;62.22;19.50;;;;;;;;;;5037529;28;20048;-51
2022/11/23 07:09:42;;;;;;;55.28;18.67;;;;;;;;;;5044743;28;20045;-50
2022/11/23 07:12:10;;;;;;;56.80;19.88;;;;;;;;;;5041171;28;20042;-51
2022/11/23 07:14:36;;;;;;;60.03;20.08;;;;;;;;;;5038089;28;20049;-49
2022/11/23 07:17:03;;;;;;;56.42;19.00;;;;;;;;;;5046987;28;20069;-49
2022/11/23 07:19:29;;;;;;;64.78;20.58;;;;;;;;;;5049569;28;20808;-49
2022/11/23 07:21:57;;;;;;;60.88;20.02;;;;;;;;;;5045256;28;20045;-51
2022/11/23 07:24:23;;;;;;;68.32;20.25;;;;;;;;;;5046350;28;20057;-49
2022/11/23 07:26:49;;;;;;;71.07;24.50;;;;;;;;;;5047274;28;20064;-49
2022/11/23 07:29:16;;;;;;;71.88;25.33;;;;;;;;;;5038274;28;20069;-52
2022/11/23 07:31:42;;;;;;;70.25;22.77;;;;;;;;;;5033771;28;20045;-50
2022/11/23 07:34:09;;;;;;;59.22;21.88;;;;;;;;;;5036325;28;20053;-50
2022/11/23 07:36:36;;;;;;;68.95;22.88;;;;;;;;;;5035781;28;20063;-50
2022/11/23 07:39:04;;;;;;;62.72;20.17;;;;;;;;;;5040882;28;20084;-49
2022/11/23 07:41:30;;;;;;;67.85;20.95;;;;;;;;;;5041024;28;20473;-50
2022/11/23 07:43:56;;;;;;;56.75;19.92;;;;;;;;;;5043090;28;20041;-50
2022/11/23 07:46:23;;;;;;;64.15;21.15;;;;;;;;;;5041089;28;20057;-49
2022/11/23 07:48:49;;;;;;;60.70;21.00;;;;;;;;;;5031972;28;20435;-48
2022/11/23 07:51:18;;;;;;;63.03;20.65;;;;;;;;;;5033714;28;20046;-46
2022/11/23 07:53:44;;;;;;;62.00;20.10;;;;;;;;;;5009985;28;20132;-48
2022/11/23 07:56:12;;;;;;;59.17;18.73;;;;;;;;;;5007421;28;20057;-48
2022/11/23 07:58:38;;;;;;;55.10;18.70;;;;;;;;;;5002189;28;20096;-48
2022/11/23 08:01:05;;;;;;;62.92;19.02;;;;;;;;;;5008494;28;20061;-49
2022/11/23 08:03:31;;;;;;;59.17;19.17;;;;;;;;;;5025141;28;20698;-48
2022/11/23 08:05:57;;;;;;;72.85;20.85;;;;;;;;;;5036000;28;20053;-48
2022/11/23 08:08:24;;;;;;;63.63;20.92;;;;;;;;;;5039636;28;20053;-50
2022/11/23 08:10:50;;;;;;;62.63;21.05;;;;;;;;;;5044557;28;20086;-48
2022/11/23 08:13:18;;;;;;;70.95;21.08;;;;;;;;;;5038948;28;20049;-50
2022/11/23 08:15:46;;;;;;;60.85;19.05;;;;;;;;;;5045640;28;20048;-51
2022/11/23 08:18:14;;;;;;;63.08;19.05;;;;;;;;;;5036258;28;20049;-48
2022/11/23 08:20:40;;;;;;;70.32;20.13;;;;;;;;;;5032919;28;20100;-47
2022/11/23 08:23:06;;;;;;;64.35;20.67;;;;;;;;;;5036315;28;20045;-48
2022/11/23 08:25:34;;;;;;;61.15;19.23;;;;;;;;;;5041287;28;20068;-47
2022/11/23 08:28:03;;;;;;;66.68;21.20;;;;;;;;;;5042120;28;20049;-47
2022/11/23 08:30:35;;;;;;;57.40;20.02;;;;;;;;;;5046464;28;20405;-50
2022/11/23 08:33:03;;;;;;;68.05;21.05;;;;;;;;;;5042862;28;20045;-49
2022/11/23 08:35:30;;;;;;;63.42;19.15;;;;;;;;;;5047374;28;20085;-49
2022/11/23 08:37:56;;;;;;;56.67;17.45;;;;;;;;;;5046210;28;20060;-49
2022/11/23 08:40:22;;;;;;;60.58;18.77;;;;;;;;;;5039276;28;20791;-49
2022/11/23 08:42:48;;;;;;;70.95;19.45;;;;;;;;;;5038586;28;20072;-53
2022/11/23 08:45:15;;;;;;;61.35;18.83;;;;;;;;;;5042990;28;20057;-49
2022/11/23 08:47:42;;;;;;;59.10;19.83;;;;;;;;;;5038703;28;20059;-49
2022/11/23 08:50:09;;;;;;;56.33;19.15;;;;;;;;;;5053043;28;20049;-49
2022/11/23 08:52:35;;;;;;;59.13;18.67;;;;;;;;;;5051970;28;20128;-50
2022/11/23 08:55:02;;;;;;;54.00;19.13;;;;;;;;;;5043779;28;20049;-49
2022/11/23 08:57:28;;;;;;;54.03;18.60;;;;;;;;;;5041520;28;20397;-52
2022/11/23 08:59:54;;;;;;;70.00;21.13;;;;;;;;;;5049902;28;20057;-51
2022/11/23 09:02:21;;;;;;;66.60;21.27;;;;;;;;;;5054932;28;20454;-49
2022/11/23 09:04:48;;;;;;;63.22;20.33;;;;;;;;;;5050709;28;20060;-53
2022/11/23 09:07:14;;;;;;;66.43;21.20;;;;;;;;;;5052107;28;20045;-49
2022/11/23 09:09:41;;;;;;;72.10;24.08;;;;;;;;;;5047177;28;20065;-49
2022/11/23 09:12:07;;;;;;;74.45;27.88;;;;;;;;;;5037114;28;20060;-49
2022/11/23 09:14:33;;;;;;;62.20;22.17;;;;;;;;;;5042097;28;20049;-49
2022/11/23 09:17:00;;;;;;;60.47;18.85;;;;;;;;;;5043414;28;20549;-53
2022/11/23 09:19:26;;;;;;;60.58;21.15;;;;;;;;;;5040551;28;20061;-50
2022/11/23 09:21:54;;;;;;;66.47;20.25;;;;;;;;;;5046085;28;20053;-48
2022/11/23 09:24:21;;;;;;;67.28;20.90;;;;;;;;;;5035230;28;20058;-49
2022/11/23 09:26:47;;;;;;;58.08;20.83;;;;;;;;;;5035312;28;20152;-52
2022/11/23 09:29:13;;;;;;;64.22;20.70;;;;;;;;;;5041147;28;20481;-49
2022/11/23 09:31:40;;;;;;;58.85;20.42;;;;;;;;;;5045514;28;20049;-48
2022/11/23 09:34:06;;;;;;;67.68;20.48;;;;;;;;;;5040912;28;20048;-49
2022/11/23 09:36:32;;;;;;;63.42;18.83;;;;;;;;;;5053256;28;20481;-50
2022/11/23 09:39:00;;;;;;;56.17;18.67;;;;;;;;;;5054880;28;20049;-49
2022/11/23 09:41:37;;;;;;;69.40;18.55;;;;;;;;;;5054830;28;20068;-50
2022/11/23 09:44:08;;;;;;;53.83;17.23;;;;;;;;;;5054396;28;20049;-52
2022/11/23 09:46:39;;;;;;;59.08;19.23;;;;;;;;;;5040947;28;20072;-49
2022/11/23 09:49:16;;;;;;;51.65;19.85;;;;;;;;;;5049551;28;20052;-51
2022/11/23 09:51:43;;;;;;;53.88;18.48;;;;;;;;;;5050206;28;20049;-52
2022/11/23 09:54:15;;;;;;;61.90;20.05;;;;;;;;;;5038279;28;20059;-49
2022/11/23 09:56:45;;;;;;;53.42;18.15;;;;;;;;;;5053208;28;20080;-51
2022/11/23 09:59:13;;;;;;;62.17;17.88;;;;;;;;;;5041257;28;20123;-50
2022/11/23 10:01:40;;;;;;;57.10;18.42;;;;;;;;;;5034759;28;20064;-49
2022/11/23 10:04:07;;;;;;;51.22;17.20;;;;;;;;;;5034806;28;20049;-49
2022/11/23 10:06:37;;;;;;;59.63;19.98;;;;;;;;;;5050737;28;20044;-52
2022/11/23 10:09:16;;;;;;;54.38;18.08;;;;;;;;;;5053423;28;20053;-50
2022/11/23 10:12:04;;;;;;;50.10;18.02;;;;;;;;;;5042732;28;20057;-49
2022/11/23 10:14:39;;;;;;;52.78;18.02;;;;;;;;;;5041315;28;20057;-49
2022/11/23 10:17:09;;;;;;;58.95;18.83;;;;;;;;;;5034051;28;20050;-50
2022/11/23 10:19:41;;;;;;;59.38;17.98;;;;;;;;;;5034299;28;20497;-49
2022/11/23 10:22:10;;;;;;;54.80;17.35;;;;;;;;;;5034465;28;20046;-49
2022/11/23 10:24:39;;;;;;;58.33;17.75;;;;;;;;;;5034544;28;20054;-50
2022/11/23 10:27:10;;;;;;;61.88;19.13;;;;;;;;;;5034037;28;20053;-49
2022/11/23 10:29:37;;;;;;;57.72;17.98;;;;;;;;;;5037413;28;20095;-48
2022/11/23 10:32:05;;;;;;;54.28;18.20;;;;;;;;;;5044075;28;20246;-49
2022/11/23 10:34:40;;;;;;;53.92;18.45;;;;;;;;;;5047291;28;20068;-50
2022/11/23 10:37:08;;;;;;;52.93;19.20;;;;;;;;;;5039046;28;20053;-49
2022/11/23 10:39:35;;;;;;;57.85;19.20;;;;;;;;;;5034178;28;20060;-50
2022/11/23 10:42:09;;;;;;;58.45;19.48;;;;;;;;;;5043796;28;20048;-52
2022/11/23 10:44:37;;;;;;;61.35;19.33;;;;;;;;;;5033967;28;20049;-51
2022/11/23 10:47:04;;;;;;;57.78;18.98;;;;;;;;;;5034036;28;20108;-50
2022/11/23 10:49:31;;;;;;;65.43;21.00;;;;;;;;;;5035926;28;20049;-50
2022/11/23 10:51:59;;;;;;;55.25;19.42;;;;;;;;;;5039981;28;20080;-50
2022/11/23 10:54:27;;;;;;;58.58;19.02;;;;;;;;;;5039302;28;20063;-49
2022/11/23 10:56:54;;;;;;;59.33;19.75;;;;;;;;;;5052842;28;20076;-49
2022/11/23 10:59:28;;;;;;;75.20;21.30;;;;;;;;;;5053522;28;20052;-50
2022/11/23 11:02:14;;;;;;;61.03;19.55;;;;;;;;;;5035539;28;20099;-51
2022/11/23 11:04:40;;;;;;;61.30;19.10;;;;;;;;;;5033697;28;20136;-49
2022/11/23 11:07:10;;;;;;;54.67;19.10;;;;;;;;;;5037392;28;20068;-49
2022/11/23 11:09:36;;;;;;;55.10;17.58;;;;;;;;;;5033248;28;20351;-51
2022/11/23 11:12:03;;;;;;;53.92;17.95;;;;;;;;;;5042872;28;20045;-49
2022/11/23 11:14:30;;;;;;;60.22;18.33;;;;;;;;;;5042380;28;20485;-49
2022/11/23 11:16:57;;;;;;;58.20;18.08;;;;;;;;;;5049774;28;20064;-49
2022/11/23 11:19:26;;;;;;;47.70;16.45;;;;;;;;;;5033134;28;20557;-51
2022/11/23 11:21:52;;;;;;;50.88;17.27;;;;;;;;;;5032998;28;20852;-50
2022/11/23 11:24:20;;;;;;;52.97;18.50;;;;;;;;;;5033264;28;20053;-50
2022/11/23 11:26:48;;;;;;;54.85;17.55;;;;;;;;;;5036593;28;20064;-51
2022/11/23 11:29:24;;;;;;;56.13;17.70;;;;;;;;;;5044484;28;20064;-50
2022/11/23 11:31:55;;;;;;;50.47;18.83;;;;;;;;;;5033113;28;20395;-50
2022/11/23 11:34:23;;;;;;;43.88;15.52;;;;;;;;;;5033417;28;20057;-50
2022/11/23 11:36:51;;;;;;;58.35;18.10;;;;;;;;;;5037230;28;20053;-50
2022/11/23 11:39:22;;;;;;;53.42;17.52;;;;;;;;;;5033213;28;20060;-53
2022/11/23 11:41:49;;;;;;;52.05;17.00;;;;;;;;;;5036742;28;20049;-49
2022/11/23 11:44:19;;;;;;;53.38;19.00;;;;;;;;;;5032870;28;20049;-50
2022/11/23 11:46:47;;;;;;;55.38;18.33;;;;;;;;;;5038117;28;20045;-49
2022/11/23 11:49:18;;;;;;;51.88;17.77;;;;;;;;;;5034731;28;20049;-49
2022/11/23 11:51:46;;;;;;;65.20;21.45;;;;;;;;;;5035624;28;20060;-52
2022/11/23 11:54:17;;;;;;;63.92;18.92;;;;;;;;;;5041603;28;20040;-52
2022/11/23 11:56:45;;;;;;;66.53;19.52;;;;;;;;;;5037689;28;20071;-49
2022/11/23 11:59:31;;;;;;;61.63;20.48;;;;;;;;;;5037954;28;20370;-52
2022/11/23 12:02:02;;;;;;;54.50;17.98;;;;;;;;;;5032236;28;20049;-52
2022/11/23 12:04:34;;;;;;;54.35;18.65;;;;;;;;;;5032681;28;20046;-52
2022/11/23 12:07:05;;;;;;;50.28;16.42;;;;;;;;;;5044761;28;20046;-52
2022/11/23 12:09:34;;;;;;;57.67;17.95;;;;;;;;;;5048479;28;20080;-52
2022/11/23 12:12:01;;;;;;;48.95;18.50;;;;;;;;;;5037673;28;20389;-50
2022/11/23 12:14:27;;;;;;;55.25;16.67;;;;;;;;;;5039935;28;20060;-52
2022/11/23 12:16:57;;;;;;;44.92;16.02;;;;;;;;;;5051095;28;20060;-49
2022/11/23 12:19:26;;;;;;;57.20;18.55;;;;;;;;;;5048607;28;20049;-49
2022/11/23 12:22:02;;;;;;;47.50;17.50;;;;;;;;;;5040048;28;20057;-51
2022/11/23 12:24:36;;;;;;;55.58;19.45;;;;;;;;;;5042792;28;20062;-50
2022/11/23 12:27:12;;;;;;;52.40;18.23;;;;;;;;;;5052349;28;20064;-49
2022/11/23 12:29:49;;;;;;;58.33;19.77;;;;;;;;;;5032396;28;20053;-51
2022/11/23 12:32:22;;;;;;;50.25;17.30;;;;;;;;;;5031781;28;20057;-50
2022/11/23 12:35:01;;;;;;;46.35;16.77;;;;;;;;;;5036990;28;20064;-49
2022/11/23 12:37:36;;;;;;;49.97;17.20;;;;;;;;;;5047523;28;20373;-49
2022/11/23 12:40:13;;;;;;;45.05;15.65;;;;;;;;;;5050980;28;20041;-52
2022/11/23 12:42:42;;;;;;;57.78;15.85;;;;;;;;;;5047438;28;20049;-53
2022/11/23 12:45:17;;;;;;;49.45;18.35;;;;;;;;;;5048518;28;20392;-52
2022/11/23 12:47:46;;;;;;;53.63;18.07;;;;;;;;;;5055752;28;20048;-49
2022/11/23 12:50:17;;;;;;;60.30;17.92;;;;;;;;;;5050974;28;20287;-49
2022/11/23 12:52:50;;;;;;;57.03;18.73;;;;;;;;;;5048925;28;20048;-49
2022/11/23 12:55:20;;;;;;;50.67;18.13;;;;;;;;;;5046151;28;20500;-49
2022/11/23 12:57:48;;;;;;;49.78;16.73;;;;;;;;;;5052140;28;20140;-49
2022/11/23 13:00:17;;;;;;;49.05;16.88;;;;;;;;;;5050624;28;20457;-53
2022/11/23 13:02:55;;;;;;;47.60;16.48;;;;;;;;;;5051738;28;20049;-49
2022/11/23 13:05:36;;;;;;;46.42;15.57;;;;;;;;;;5050894;28;20070;-50
2022/11/23 13:08:18;;;;;;;52.30;16.02;;;;;;;;;;5047161;28;20049;-52
2022/11/23 13:10:53;;;;;;;47.75;17.17;;;;;;;;;;5047884;28;20060;-49
2022/11/23 13:13:27;;;;;;;42.33;15.40;;;;;;;;;;5049353;28;20049;-52
2022/11/23 13:16:08;;;;;;;48.50;15.25;;;;;;;;;;5047767;28;20056;-52
2022/11/23 13:18:43;;;;;;;55.60;18.63;;;;;;;;;;5044073;28;20045;-48
2022/11/23 13:21:16;;;;;;;45.90;17.25;;;;;;;;;;5049667;28;20056;-49
2022/11/23 13:23:43;;;;;;;47.22;15.85;;;;;;;;;;5049252;28;20041;-50
2022/11/23 13:26:13;;;;;;;46.15;17.80;;;;;;;;;;5052087;28;20445;-51
2022/11/23 13:28:40;;;;;;;50.15;18.45;;;;;;;;;;5048819;28;20056;-52
2022/11/23 13:31:17;;;;;;;40.88;15.00;;;;;;;;;;5050491;28;20045;-50
2022/11/23 13:33:46;;;;;;;42.25;16.23;;;;;;;;;;5048622;28;20068;-50
2022/11/23 13:36:12;;;;;;;47.10;15.23;;;;;;;;;;5041273;28;20057;-49
2022/11/23 13:38:40;;;;;;;45.92;14.30;;;;;;;;;;5035228;28;20049;-49
2022/11/23 13:41:25;;;;;;;42.13;16.27;;;;;;;;;;5034976;28;20071;-50
2022/11/23 13:43:55;;;;;;;53.67;16.52;;;;;;;;;;5035498;28;20073;-50
2022/11/23 13:46:22;;;;;;;40.45;13.45;;;;;;;;;;5040407;28;20060;-49
2022/11/23 13:48:51;;;;;;;41.53;14.48;;;;;;;;;;5027650;28;20060;-49
2022/11/23 13:51:26;;;;;;;42.40;13.85;;;;;;;;;;5048079;28;20068;-49
2022/11/23 13:54:26;;;;;;;38.13;13.88;;;;;;;;;;5043103;28;20085;-49
2022/11/23 13:56:57;;;;;;;40.92;15.55;;;;;;;;;;5034675;28;20145;-51
2022/11/23 13:59:40;;;;;;;45.28;15.10;;;;;;;;;;5046234;28;20080;-49
2022/11/23 14:02:27;;;;;;;43.22;14.80;;;;;;;;;;5036183;28;20139;-49
2022/11/23 14:05:14;;;;;;;46.03;16.90;;;;;;;;;;5052046;28;20064;-49
2022/11/23 14:07:44;;;;;;;37.92;15.35;;;;;;;;;;5037944;28;20048;-48
2022/11/23 14:10:19;;;;;;;49.90;16.13;;;;;;;;;;5049695;28;20045;-51
2022/11/23 14:12:50;;;;;;;36.95;14.95;;;;;;;;;;5050682;28;20055;-50
2022/11/23 14:15:19;;;;;;;47.60;16.38;;;;;;;;;;5052469;28;20051;-51
2022/11/23 14:18:04;;;;;;;43.67;16.50;;;;;;;;;;5041136;28;20057;-49
2022/11/23 14:20:37;;;;;;;48.05;15.65;;;;;;;;;;5052617;28;20056;-49
2022/11/23 14:23:12;;;;;;;44.88;15.95;;;;;;;;;;5046053;28;20135;-47
2022/11/23 14:25:48;;;;;;;39.00;15.38;;;;;;;;;;5044492;28;20069;-50
2022/11/23 14:28:23;;;;;;;48.20;15.63;;;;;;;;;;5041505;28;20049;-49